sensor_id;sensor_type;location;lat;lon;timestamp;noise_LAeq;noise_LA_min;noise_LA_max;noise_LA01;noise_LA95
72805;Laerm;60920;48.748;19.142;2023-02-26T00:00:09;37.27;35.78;39.21;;
72805;Laerm;60920;48.748;19.142;2023-02-26T00:02:38;37.28;35.35;39.34;;
72805;Laerm;60920;48.748;19.142;2023-02-26T00:05:04;37.29;35.65;39.17;;
72805;Laerm;60920;48.748;19.142;2023-02-26T00:07:29;37.31;35.67;39.32;;
72805;Laerm;60920;48.748;19.142;2023-02-26T00:09:55;37.32;35.85;38.95;;
72805;Laerm;60920;48.748;19.142;2023-02-26T00:12:20;37.33;35.92;39.08;;
72805;Laerm;60920;48.748;19.142;2023-02-26T00:14:46;37.32;35.57;40.00;;
72805;Laerm;60920;48.748;19.142;2023-02-26T00:19:57;37.27;35.89;38.81;;
72805;Laerm;60920;48.748;19.142;2023-02-26T00:22:22;37.28;35.72;39.39;;
72805;Laerm;60920;48.748;19.142;2023-02-26T00:24:48;37.28;35.69;39.39;;
72805;Laerm;60920;48.748;19.142;2023-02-26T00:27:13;37.24;35.73;39.44;;
72805;Laerm;60920;48.748;19.142;2023-02-26T00:29:39;37.24;35.82;39.14;;
72805;Laerm;60920;48.748;19.142;2023-02-26T00:32:04;37.22;35.91;39.81;;
72805;Laerm;60920;48.748;19.142;2023-02-26T00:34:30;37.21;35.87;39.25;;
72805;Laerm;60920;48.748;19.142;2023-02-26T00:42:05;37.17;35.68;39.20;;
72805;Laerm;60920;48.748;19.142;2023-02-26T00:44:30;37.15;35.57;39.25;;
72805;Laerm;60920;48.748;19.142;2023-02-26T00:52:28;37.16;35.85;39.76;;
72805;Laerm;60920;48.748;19.142;2023-02-26T00:54:56;37.17;35.71;38.67;;
72805;Laerm;60920;48.748;19.142;2023-02-26T00:57:21;37.20;35.85;38.70;;
72805;Laerm;60920;48.748;19.142;2023-02-26T00:59:47;37.23;35.75;38.82;;
72805;Laerm;60920;48.748;19.142;2023-02-26T01:02:12;37.23;35.57;39.10;;
72805;Laerm;60920;48.748;19.142;2023-02-26T01:04:38;37.22;35.66;39.20;;
72805;Laerm;60920;48.748;19.142;2023-02-26T01:07:03;37.22;35.79;39.52;;
72805;Laerm;60920;48.748;19.142;2023-02-26T01:09:30;37.19;35.57;38.90;;
72805;Laerm;60920;48.748;19.142;2023-02-26T01:11:57;37.19;35.73;38.79;;
72805;Laerm;60920;48.748;19.142;2023-02-26T01:14:26;37.21;35.75;38.73;;
72805;Laerm;60920;48.748;19.142;2023-02-26T01:19:28;37.20;35.64;39.09;;
72805;Laerm;60920;48.748;19.142;2023-02-26T01:21:59;37.24;35.85;38.81;;
72805;Laerm;60920;48.748;19.142;2023-02-26T01:24:25;37.24;35.65;39.15;;
72805;Laerm;60920;48.748;19.142;2023-02-26T01:26:51;37.25;35.75;38.93;;
72805;Laerm;60920;48.748;19.142;2023-02-26T01:29:17;37.23;35.76;41.81;;
72805;Laerm;60920;48.748;19.142;2023-02-26T01:31:49;37.26;35.79;45.32;;
72805;Laerm;60920;48.748;19.142;2023-02-26T01:34:22;37.25;35.95;38.57;;
72805;Laerm;60920;48.748;19.142;2023-02-26T01:36:55;37.23;35.57;38.55;;
72805;Laerm;60920;48.748;19.142;2023-02-26T01:39:27;37.22;35.72;38.59;;
72805;Laerm;60920;48.748;19.142;2023-02-26T01:41:59;37.24;35.61;39.41;;
72805;Laerm;60920;48.748;19.142;2023-02-26T01:44:39;37.24;35.70;38.47;;
72805;Laerm;60920;48.748;19.142;2023-02-26T01:47:11;37.27;35.69;39.12;;
72805;Laerm;60920;48.748;19.142;2023-02-26T01:49:39;37.28;35.96;39.20;;
72805;Laerm;60920;48.748;19.142;2023-02-26T01:52:05;37.30;35.63;38.67;;
72805;Laerm;60920;48.748;19.142;2023-02-26T01:54:35;37.40;35.89;40.26;;
72805;Laerm;60920;48.748;19.142;2023-02-26T01:57:08;37.42;35.86;38.75;;
72805;Laerm;60920;48.748;19.142;2023-02-26T01:59:40;37.41;35.88;39.16;;
72805;Laerm;60920;48.748;19.142;2023-02-26T02:02:07;37.41;35.89;40.32;;
72805;Laerm;60920;48.748;19.142;2023-02-26T02:04:34;37.35;35.94;41.05;;
72805;Laerm;60920;48.748;19.142;2023-02-26T02:06:59;37.30;35.75;38.63;;
72805;Laerm;60920;48.748;19.142;2023-02-26T02:09:24;37.30;35.79;40.08;;
72805;Laerm;60920;48.748;19.142;2023-02-26T02:12:04;37.29;35.97;38.79;;
72805;Laerm;60920;48.748;19.142;2023-02-26T02:14:42;37.29;35.87;38.90;;
72805;Laerm;60920;48.748;19.142;2023-02-26T02:24:56;37.31;35.86;38.72;;
72805;Laerm;60920;48.748;19.142;2023-02-26T02:32:27;37.30;35.88;38.78;;
72805;Laerm;60920;48.748;19.142;2023-02-26T02:34:56;37.29;35.51;38.56;;
72805;Laerm;60920;48.748;19.142;2023-02-26T02:37:27;37.29;35.69;38.92;;
72805;Laerm;60920;48.748;19.142;2023-02-26T02:39:55;37.28;35.95;38.88;;
72805;Laerm;60920;48.748;19.142;2023-02-26T02:42:38;37.27;35.64;38.85;;
72805;Laerm;60920;48.748;19.142;2023-02-26T02:45:09;37.30;35.60;38.63;;
72805;Laerm;60920;48.748;19.142;2023-02-26T02:47:36;37.28;35.79;38.54;;
72805;Laerm;60920;48.748;19.142;2023-02-26T02:50:05;37.29;35.87;38.64;;
72805;Laerm;60920;48.748;19.142;2023-02-26T02:52:34;37.27;35.85;38.79;;
72805;Laerm;60920;48.748;19.142;2023-02-26T02:55:02;37.34;35.92;38.63;;
72805;Laerm;60920;48.748;19.142;2023-02-26T02:57:31;37.41;35.98;38.90;;
72805;Laerm;60920;48.748;19.142;2023-02-26T02:59:59;37.38;35.94;38.83;;
72805;Laerm;60920;48.748;19.142;2023-02-26T03:04:55;37.36;35.42;38.75;;
72805;Laerm;60920;48.748;19.142;2023-02-26T03:07:21;37.38;36.05;39.01;;
72805;Laerm;60920;48.748;19.142;2023-02-26T03:09:46;37.36;35.99;38.86;;
72805;Laerm;60920;48.748;19.142;2023-02-26T03:12:12;37.36;36.00;38.87;;
72805;Laerm;60920;48.748;19.142;2023-02-26T03:14:37;37.41;36.17;39.14;;
72805;Laerm;60920;48.748;19.142;2023-02-26T03:22:01;37.35;35.95;38.74;;
72805;Laerm;60920;48.748;19.142;2023-02-26T03:24:31;37.38;35.90;38.87;;
72805;Laerm;60920;48.748;19.142;2023-02-26T03:27:10;37.37;35.68;38.76;;
72805;Laerm;60920;48.748;19.142;2023-02-26T03:32:18;37.41;35.81;38.85;;
72805;Laerm;60920;48.748;19.142;2023-02-26T03:34:52;37.41;36.11;38.99;;
72805;Laerm;60920;48.748;19.142;2023-02-26T03:37:30;37.43;35.99;38.92;;
72805;Laerm;60920;48.748;19.142;2023-02-26T03:39:58;37.45;36.17;38.84;;
72805;Laerm;60920;48.748;19.142;2023-02-26T03:42:37;37.45;36.09;38.92;;
72805;Laerm;60920;48.748;19.142;2023-02-26T03:45:06;37.49;35.88;38.84;;
72805;Laerm;60920;48.748;19.142;2023-02-26T03:47:34;37.38;35.86;38.82;;
72805;Laerm;60920;48.748;19.142;2023-02-26T03:50:10;37.31;35.88;38.70;;
72805;Laerm;60920;48.748;19.142;2023-02-26T03:52:38;37.29;35.72;38.66;;
72805;Laerm;60920;48.748;19.142;2023-02-26T03:55:07;37.33;35.94;38.87;;
72805;Laerm;60920;48.748;19.142;2023-02-26T03:57:33;37.38;35.77;38.98;;
72805;Laerm;60920;48.748;19.142;2023-02-26T03:59:59;37.42;36.04;38.77;;
72805;Laerm;60920;48.748;19.142;2023-02-26T04:02:32;37.40;35.75;38.89;;
72805;Laerm;60920;48.748;19.142;2023-02-26T04:05:22;37.35;35.63;38.66;;
72805;Laerm;60920;48.748;19.142;2023-02-26T04:07:45;37.33;35.87;38.82;;
72805;Laerm;60920;48.748;19.142;2023-02-26T04:10:13;37.36;35.95;38.68;;
72805;Laerm;60920;48.748;19.142;2023-02-26T04:12:41;37.36;35.86;38.78;;
72805;Laerm;60920;48.748;19.142;2023-02-26T04:15:06;37.35;35.81;38.78;;
72805;Laerm;60920;48.748;19.142;2023-02-26T04:17:32;37.32;35.89;38.67;;
72805;Laerm;60920;48.748;19.142;2023-02-26T04:19:57;37.30;35.91;38.75;;
72805;Laerm;60920;48.748;19.142;2023-02-26T04:22:23;37.34;35.97;38.79;;
72805;Laerm;60920;48.748;19.142;2023-02-26T04:24:48;37.36;35.95;38.75;;
72805;Laerm;60920;48.748;19.142;2023-02-26T04:27:13;37.35;35.89;38.72;;
72805;Laerm;60920;48.748;19.142;2023-02-26T04:29:39;37.27;35.92;38.59;;
72805;Laerm;60920;48.748;19.142;2023-02-26T04:32:04;37.29;35.69;38.80;;
72805;Laerm;60920;48.748;19.142;2023-02-26T04:34:29;37.28;35.71;38.61;;
72805;Laerm;60920;48.748;19.142;2023-02-26T04:36:54;37.26;35.91;38.69;;
72805;Laerm;60920;48.748;19.142;2023-02-26T04:39:20;37.26;35.83;38.64;;
72805;Laerm;60920;48.748;19.142;2023-02-26T04:41:45;37.28;35.75;38.79;;
72805;Laerm;60920;48.748;19.142;2023-02-26T04:44:10;37.29;36.00;38.67;;
72805;Laerm;60920;48.748;19.142;2023-02-26T04:46:36;37.27;35.90;38.67;;
72805;Laerm;60920;48.748;19.142;2023-02-26T04:49:01;37.33;35.88;38.91;;
72805;Laerm;60920;48.748;19.142;2023-02-26T04:51:26;37.30;35.84;38.78;;
72805;Laerm;60920;48.748;19.142;2023-02-26T04:53:51;37.31;35.75;38.60;;
72805;Laerm;60920;48.748;19.142;2023-02-26T04:56:17;37.33;35.81;38.76;;
72805;Laerm;60920;48.748;19.142;2023-02-26T04:58:42;37.30;35.87;38.80;;
72805;Laerm;60920;48.748;19.142;2023-02-26T05:01:08;37.29;35.74;38.75;;
72805;Laerm;60920;48.748;19.142;2023-02-26T05:03:33;37.29;35.80;38.77;;
72805;Laerm;60920;48.748;19.142;2023-02-26T05:05:58;37.30;35.87;38.74;;
72805;Laerm;60920;48.748;19.142;2023-02-26T05:08:23;37.29;35.71;38.75;;
72805;Laerm;60920;48.748;19.142;2023-02-26T05:10:49;37.32;36.00;38.65;;
72805;Laerm;60920;48.748;19.142;2023-02-26T05:13:15;37.40;35.75;38.68;;
72805;Laerm;60920;48.748;19.142;2023-02-26T05:15:40;37.41;36.00;38.90;;
72805;Laerm;60920;48.748;19.142;2023-02-26T05:18:06;37.43;35.97;38.91;;
72805;Laerm;60920;48.748;19.142;2023-02-26T05:20:31;37.41;36.08;38.77;;
72805;Laerm;60920;48.748;19.142;2023-02-26T05:22:56;37.41;35.78;38.91;;
72805;Laerm;60920;48.748;19.142;2023-02-26T05:25:22;37.41;35.61;38.68;;
72805;Laerm;60920;48.748;19.142;2023-02-26T05:27:47;37.44;35.78;38.95;;
72805;Laerm;60920;48.748;19.142;2023-02-26T05:30:15;37.48;35.88;38.90;;
72805;Laerm;60920;48.748;19.142;2023-02-26T05:32:41;37.51;36.09;39.01;;
72805;Laerm;60920;48.748;19.142;2023-02-26T05:35:06;37.55;36.14;39.16;;
72805;Laerm;60920;48.748;19.142;2023-02-26T05:37:31;37.46;35.97;38.88;;
72805;Laerm;60920;48.748;19.142;2023-02-26T05:39:57;37.45;36.02;38.83;;
72805;Laerm;60920;48.748;19.142;2023-02-26T05:42:22;37.38;35.79;38.76;;
72805;Laerm;60920;48.748;19.142;2023-02-26T05:44:47;37.37;35.53;38.89;;
72805;Laerm;60920;48.748;19.142;2023-02-26T05:47:13;37.35;35.83;38.69;;
72805;Laerm;60920;48.748;19.142;2023-02-26T05:49:38;37.33;35.68;38.60;;
72805;Laerm;60920;48.748;19.142;2023-02-26T05:52:03;37.32;35.86;38.86;;
72805;Laerm;60920;48.748;19.142;2023-02-26T05:54:28;37.35;35.86;38.91;;
72805;Laerm;60920;48.748;19.142;2023-02-26T05:56:54;37.35;35.95;38.80;;
72805;Laerm;60920;48.748;19.142;2023-02-26T05:59:20;37.33;35.78;38.65;;
72805;Laerm;60920;48.748;19.142;2023-02-26T06:01:45;37.33;35.87;38.56;;
72805;Laerm;60920;48.748;19.142;2023-02-26T06:04:11;37.29;35.91;38.60;;
72805;Laerm;60920;48.748;19.142;2023-02-26T06:06:36;37.30;35.83;38.70;;
72805;Laerm;60920;48.748;19.142;2023-02-26T06:09:01;37.31;35.89;38.61;;
72805;Laerm;60920;48.748;19.142;2023-02-26T06:11:27;37.32;35.64;38.71;;
72805;Laerm;60920;48.748;19.142;2023-02-26T06:13:53;37.35;35.80;38.67;;
72805;Laerm;60920;48.748;19.142;2023-02-26T06:16:18;37.36;36.04;38.72;;
72805;Laerm;60920;48.748;19.142;2023-02-26T06:18:44;37.33;35.90;38.77;;
72805;Laerm;60920;48.748;19.142;2023-02-26T06:21:10;37.30;35.80;38.54;;
72805;Laerm;60920;48.748;19.142;2023-02-26T06:23:35;37.26;35.71;38.47;;
72805;Laerm;60920;48.748;19.142;2023-02-26T06:26:00;37.24;35.42;38.77;;
72805;Laerm;60920;48.748;19.142;2023-02-26T06:28:26;37.20;35.85;38.60;;
72805;Laerm;60920;48.748;19.142;2023-02-26T06:30:52;37.18;35.78;38.55;;
72805;Laerm;60920;48.748;19.142;2023-02-26T06:33:17;37.18;35.72;38.39;;
72805;Laerm;60920;48.748;19.142;2023-02-26T06:35:43;37.18;35.51;38.39;;
72805;Laerm;60920;48.748;19.142;2023-02-26T06:38:08;37.18;35.91;43.09;;
72805;Laerm;60920;48.748;19.142;2023-02-26T06:40:33;37.19;35.89;39.52;;
72805;Laerm;60920;48.748;19.142;2023-02-26T06:42:58;37.18;35.79;45.81;;
72805;Laerm;60920;48.748;19.142;2023-02-26T06:45:24;37.17;35.31;39.29;;
72805;Laerm;60920;48.748;19.142;2023-02-26T06:47:50;37.21;35.65;45.55;;
72805;Laerm;60920;48.748;19.142;2023-02-26T06:50:15;37.15;35.69;46.17;;
72805;Laerm;60920;48.748;19.142;2023-02-26T06:52:40;37.17;35.65;42.55;;
72805;Laerm;60920;48.748;19.142;2023-02-26T06:55:06;37.09;35.69;43.52;;
72805;Laerm;60920;48.748;19.142;2023-02-26T06:57:31;37.05;35.50;46.62;;
72805;Laerm;60920;48.748;19.142;2023-02-26T06:59:57;37.09;35.63;46.68;;
72805;Laerm;60920;48.748;19.142;2023-02-26T07:02:22;37.05;35.35;45.35;;
72805;Laerm;60920;48.748;19.142;2023-02-26T07:04:48;37.01;35.49;41.39;;
72805;Laerm;60920;48.748;19.142;2023-02-26T07:07:13;36.97;35.60;39.02;;
72805;Laerm;60920;48.748;19.142;2023-02-26T07:09:39;36.95;35.44;42.11;;
72805;Laerm;60920;48.748;19.142;2023-02-26T07:12:04;36.94;35.51;42.00;;
72805;Laerm;60920;48.748;19.142;2023-02-26T07:14:31;36.89;35.16;39.51;;
72805;Laerm;60920;48.748;19.142;2023-02-26T07:16:56;36.89;35.34;39.70;;
72805;Laerm;60920;48.748;19.142;2023-02-26T07:19:22;36.84;35.17;38.57;;
72805;Laerm;60920;48.748;19.142;2023-02-26T07:21:47;36.80;35.35;38.54;;
72805;Laerm;60920;48.748;19.142;2023-02-26T07:24:13;36.82;35.35;38.88;;
72805;Laerm;60920;48.748;19.142;2023-02-26T07:26:38;36.80;35.34;38.71;;
72805;Laerm;60920;48.748;19.142;2023-02-26T07:29:04;36.78;35.43;38.93;;
72805;Laerm;60920;48.748;19.142;2023-02-26T07:31:29;36.86;35.34;40.03;;
72805;Laerm;60920;48.748;19.142;2023-02-26T07:33:55;36.80;35.38;39.88;;
72805;Laerm;60920;48.748;19.142;2023-02-26T07:36:20;36.76;35.28;39.05;;
72805;Laerm;60920;48.748;19.142;2023-02-26T07:38:46;36.73;35.15;38.61;;
72805;Laerm;60920;48.748;19.142;2023-02-26T07:41:11;36.70;35.23;38.83;;
72805;Laerm;60920;48.748;19.142;2023-02-26T07:43:36;36.68;35.33;38.16;;
72805;Laerm;60920;48.748;19.142;2023-02-26T07:46:02;36.67;35.11;39.63;;
72805;Laerm;60920;48.748;19.142;2023-02-26T07:48:28;36.62;35.29;38.96;;
72805;Laerm;60920;48.748;19.142;2023-02-26T07:50:53;36.63;35.05;38.02;;
72805;Laerm;60920;48.748;19.142;2023-02-26T07:53:18;36.61;35.19;38.41;;
72805;Laerm;60920;48.748;19.142;2023-02-26T07:55:44;36.61;35.03;39.01;;
72805;Laerm;60920;48.748;19.142;2023-02-26T07:58:09;36.56;35.11;38.31;;
72805;Laerm;60920;48.748;19.142;2023-02-26T08:00:34;36.55;35.03;38.69;;
72805;Laerm;60920;48.748;19.142;2023-02-26T08:03:00;36.58;35.19;39.55;;
72805;Laerm;60920;48.748;19.142;2023-02-26T08:05:25;36.56;35.13;39.25;;
72805;Laerm;60920;48.748;19.142;2023-02-26T08:07:50;36.57;35.17;39.70;;
72805;Laerm;60920;48.748;19.142;2023-02-26T08:10:15;36.54;35.07;38.02;;
72805;Laerm;60920;48.748;19.142;2023-02-26T08:12:41;36.51;35.08;40.34;;
72805;Laerm;60920;48.748;19.142;2023-02-26T08:15:06;36.49;34.78;38.51;;
72805;Laerm;60920;48.748;19.142;2023-02-26T08:17:32;36.46;35.07;39.05;;
72805;Laerm;60920;48.748;19.142;2023-02-26T08:19:57;36.36;34.57;38.28;;
72805;Laerm;60920;48.748;19.142;2023-02-26T08:22:22;36.45;35.00;41.49;;
72805;Laerm;60920;48.748;19.142;2023-02-26T08:24:48;36.43;34.89;39.13;;
72805;Laerm;60920;48.748;19.142;2023-02-26T08:27:14;36.39;34.90;38.70;;
72805;Laerm;60920;48.748;19.142;2023-02-26T08:29:39;36.32;34.75;38.12;;
72805;Laerm;60920;48.748;19.142;2023-02-26T08:32:04;36.31;34.90;38.08;;
72805;Laerm;60920;48.748;19.142;2023-02-26T08:34:30;36.27;34.72;39.21;;
72805;Laerm;60920;48.748;19.142;2023-02-26T08:36:55;36.29;34.80;39.43;;
72805;Laerm;60920;48.748;19.142;2023-02-26T08:39:20;36.18;34.64;37.87;;
72805;Laerm;60920;48.748;19.142;2023-02-26T08:41:45;36.16;34.84;37.78;;
72805;Laerm;60920;48.748;19.142;2023-02-26T08:44:11;36.18;34.64;38.74;;
72805;Laerm;60920;48.748;19.142;2023-02-26T08:46:36;36.19;34.56;38.48;;
72805;Laerm;60920;48.748;19.142;2023-02-26T08:49:01;36.03;34.51;38.50;;
72805;Laerm;60920;48.748;19.142;2023-02-26T08:51:27;35.99;34.38;37.68;;
72805;Laerm;60920;48.748;19.142;2023-02-26T08:53:52;35.96;34.51;38.19;;
72805;Laerm;60920;48.748;19.142;2023-02-26T08:56:18;36.02;34.19;38.29;;
72805;Laerm;60920;48.748;19.142;2023-02-26T08:58:43;35.86;34.45;38.52;;
72805;Laerm;60920;48.748;19.142;2023-02-26T09:01:08;35.84;34.29;38.14;;
72805;Laerm;60920;48.748;19.142;2023-02-26T09:03:34;35.94;34.42;38.10;;
72805;Laerm;60920;48.748;19.142;2023-02-26T09:05:59;36.09;34.60;37.51;;
72805;Laerm;60920;48.748;19.142;2023-02-26T09:08:25;36.16;34.68;37.85;;
72805;Laerm;60920;48.748;19.142;2023-02-26T09:10:50;36.19;34.65;38.17;;
72805;Laerm;60920;48.748;19.142;2023-02-26T09:13:15;36.12;34.58;37.85;;
72805;Laerm;60920;48.748;19.142;2023-02-26T09:15:41;36.25;34.70;37.79;;
72805;Laerm;60920;48.748;19.142;2023-02-26T09:18:06;36.17;34.56;37.64;;
72805;Laerm;60920;48.748;19.142;2023-02-26T09:20:31;36.19;34.52;37.47;;
72805;Laerm;60920;48.748;19.142;2023-02-26T09:22:57;36.28;34.79;37.69;;
72805;Laerm;60920;48.748;19.142;2023-02-26T09:25:22;36.32;34.64;37.84;;
72805;Laerm;60920;48.748;19.142;2023-02-26T09:27:48;36.36;34.89;38.88;;
72805;Laerm;60920;48.748;19.142;2023-02-26T09:30:13;36.37;34.69;39.42;;
72805;Laerm;60920;48.748;19.142;2023-02-26T09:32:38;36.43;34.87;38.67;;
72805;Laerm;60920;48.748;19.142;2023-02-26T09:35:04;36.44;35.02;38.60;;
72805;Laerm;60920;48.748;19.142;2023-02-26T09:37:29;36.47;34.95;37.98;;
72805;Laerm;60920;48.748;19.142;2023-02-26T09:39:55;36.54;34.93;38.54;;
72805;Laerm;60920;48.748;19.142;2023-02-26T09:45:01;36.49;35.03;38.48;;
72805;Laerm;60920;48.748;19.142;2023-02-26T09:47:39;36.57;35.10;38.47;;
72805;Laerm;60920;48.748;19.142;2023-02-26T09:50:11;36.68;35.26;38.52;;
72805;Laerm;60920;48.748;19.142;2023-02-26T09:55:09;36.72;35.28;38.12;;
72805;Laerm;60920;48.748;19.142;2023-02-26T09:57:37;36.92;35.51;39.57;;
72805;Laerm;60920;48.748;19.142;2023-02-26T10:02:50;37.06;35.58;39.56;;
72805;Laerm;60920;48.748;19.142;2023-02-26T10:05:21;37.00;35.35;38.72;;
72805;Laerm;60920;48.748;19.142;2023-02-26T10:07:55;37.10;35.62;39.17;;
72805;Laerm;60920;48.748;19.142;2023-02-26T10:13:09;37.29;35.67;43.17;;
72805;Laerm;60920;48.748;19.142;2023-02-26T10:15:41;37.18;35.60;38.98;;
72805;Laerm;60920;48.748;19.142;2023-02-26T10:18:09;37.08;35.39;39.17;;
72805;Laerm;60920;48.748;19.142;2023-02-26T10:20:38;37.18;35.48;39.23;;
72805;Laerm;60920;48.748;19.142;2023-02-26T10:23:11;37.22;35.70;38.68;;
72805;Laerm;60920;48.748;19.142;2023-02-26T10:25:41;37.25;35.61;40.92;;
72805;Laerm;60920;48.748;19.142;2023-02-26T10:30:43;36.91;35.19;42.26;;
72805;Laerm;60920;48.748;19.142;2023-02-26T10:35:36;37.11;35.30;38.88;;
72805;Laerm;60920;48.748;19.142;2023-02-26T10:38:05;37.00;35.32;38.54;;
72805;Laerm;60920;48.748;19.142;2023-02-26T10:40:52;37.14;34.78;38.68;;
72805;Laerm;60920;48.748;19.142;2023-02-26T10:43:29;37.22;35.44;39.06;;
72805;Laerm;60920;48.748;19.142;2023-02-26T10:50:59;37.52;35.84;39.07;;
72805;Laerm;60920;48.748;19.142;2023-02-26T10:53:26;37.10;35.01;39.02;;
72805;Laerm;60920;48.748;19.142;2023-02-26T10:58:26;37.22;35.20;41.73;;
72805;Laerm;60920;48.748;19.142;2023-02-26T11:00:52;36.66;35.06;38.33;;
72805;Laerm;60920;48.748;19.142;2023-02-26T11:03:19;35.98;33.63;37.86;;
72805;Laerm;60920;48.748;19.142;2023-02-26T11:05:45;35.64;33.13;38.29;;
72805;Laerm;60920;48.748;19.142;2023-02-26T11:08:14;36.06;34.07;38.46;;
72805;Laerm;60920;48.748;19.142;2023-02-26T11:10:44;36.05;34.43;40.95;;
72805;Laerm;60920;48.748;19.142;2023-02-26T11:13:11;36.19;33.85;44.83;;
72805;Laerm;60920;48.748;19.142;2023-02-26T11:15:37;36.49;34.52;41.09;;
72805;Laerm;60920;48.748;19.142;2023-02-26T11:18:05;36.62;34.56;41.93;;
72805;Laerm;60920;48.748;19.142;2023-02-26T11:20:42;36.75;34.60;42.71;;
72805;Laerm;60920;48.748;19.142;2023-02-26T11:23:10;36.92;35.33;42.10;;
72805;Laerm;60920;48.748;19.142;2023-02-26T11:25:36;37.09;35.24;41.34;;
72805;Laerm;60920;48.748;19.142;2023-02-26T11:28:04;37.02;35.33;40.37;;
72805;Laerm;60920;48.748;19.142;2023-02-26T11:30:31;37.34;35.58;39.24;;
72805;Laerm;60920;48.748;19.142;2023-02-26T11:32:57;38.41;36.94;42.35;;
72805;Laerm;60920;48.748;19.142;2023-02-26T11:35:27;38.39;36.22;40.08;;
72805;Laerm;60920;48.748;19.142;2023-02-26T11:37:53;37.66;35.90;40.62;;
72805;Laerm;60920;48.748;19.142;2023-02-26T11:40:34;37.04;35.01;38.82;;
72805;Laerm;60920;48.748;19.142;2023-02-26T11:43:03;36.71;34.98;44.03;;
72805;Laerm;60920;48.748;19.142;2023-02-26T11:45:29;36.66;34.61;47.95;;
72805;Laerm;60920;48.748;19.142;2023-02-26T11:48:01;36.82;34.93;38.42;;
72805;Laerm;60920;48.748;19.142;2023-02-26T11:50:28;37.32;35.51;39.18;;
72805;Laerm;60920;48.748;19.142;2023-02-26T11:53:04;36.58;34.91;39.89;;
72805;Laerm;60920;48.748;19.142;2023-02-26T11:55:32;36.33;34.41;40.48;;
72805;Laerm;60920;48.748;19.142;2023-02-26T11:57:58;36.04;34.02;38.84;;
72805;Laerm;60920;48.748;19.142;2023-02-26T12:00:25;36.48;34.36;42.01;;
72805;Laerm;60920;48.748;19.142;2023-02-26T12:02:55;36.40;34.12;44.15;;
72805;Laerm;60920;48.748;19.142;2023-02-26T12:05:21;36.20;34.27;39.82;;
72805;Laerm;60920;48.748;19.142;2023-02-26T12:07:46;36.61;35.09;39.12;;
72805;Laerm;60920;48.748;19.142;2023-02-26T12:10:14;37.15;34.70;47.28;;
72805;Laerm;60920;48.748;19.142;2023-02-26T12:12:50;36.50;34.76;38.15;;
72805;Laerm;60920;48.748;19.142;2023-02-26T12:20:39;36.78;34.45;38.75;;
72805;Laerm;60920;48.748;19.142;2023-02-26T12:49:53;36.63;35.02;38.63;;
72805;Laerm;60920;48.748;19.142;2023-02-26T13:03:20;36.33;34.50;38.27;;
72805;Laerm;60920;48.748;19.142;2023-02-26T13:08:40;36.98;35.35;38.67;;
72805;Laerm;60920;48.748;19.142;2023-02-26T13:11:23;36.63;34.79;38.79;;
72805;Laerm;60920;48.748;19.142;2023-02-26T13:14:00;36.41;34.86;38.24;;
72805;Laerm;60920;48.748;19.142;2023-02-26T13:16:49;36.64;34.80;38.79;;
72805;Laerm;60920;48.748;19.142;2023-02-26T13:19:36;36.45;34.71;38.82;;
72805;Laerm;60920;48.748;19.142;2023-02-26T13:24:42;36.24;34.82;38.44;;
72805;Laerm;60920;48.748;19.142;2023-02-26T13:27:10;36.45;34.91;39.32;;
72805;Laerm;60920;48.748;19.142;2023-02-26T13:29:47;36.36;34.15;38.55;;
72805;Laerm;60920;48.748;19.142;2023-02-26T13:32:23;36.49;34.68;38.25;;
72805;Laerm;60920;48.748;19.142;2023-02-26T13:37:37;36.36;34.17;39.26;;
72805;Laerm;60920;48.748;19.142;2023-02-26T13:45:17;36.17;34.18;38.07;;
72805;Laerm;60920;48.748;19.142;2023-02-26T13:53:03;36.59;34.88;39.87;;
72805;Laerm;60920;48.748;19.142;2023-02-26T13:58:05;36.44;34.60;43.55;;
72805;Laerm;60920;48.748;19.142;2023-02-26T14:00:44;36.22;34.55;38.79;;
72805;Laerm;60920;48.748;19.142;2023-02-26T14:03:12;36.35;34.37;38.36;;
72805;Laerm;60920;48.748;19.142;2023-02-26T14:06:21;36.33;34.61;38.44;;
72805;Laerm;60920;48.748;19.142;2023-02-26T14:08:49;36.40;34.72;38.41;;
72805;Laerm;60920;48.748;19.142;2023-02-26T14:11:25;36.46;34.73;41.03;;
72805;Laerm;60920;48.748;19.142;2023-02-26T14:14:04;36.42;34.58;38.29;;
72805;Laerm;60920;48.748;19.142;2023-02-26T14:16:32;36.45;34.58;38.67;;
72805;Laerm;60920;48.748;19.142;2023-02-26T14:19:05;36.41;34.68;38.13;;
72805;Laerm;60920;48.748;19.142;2023-02-26T14:22:01;36.44;34.94;38.88;;
72805;Laerm;60920;48.748;19.142;2023-02-26T14:27:19;36.50;34.87;40.78;;
72805;Laerm;60920;48.748;19.142;2023-02-26T14:34:53;36.46;34.07;39.40;;
72805;Laerm;60920;48.748;19.142;2023-02-26T14:37:21;36.27;34.46;38.00;;
72805;Laerm;60920;48.748;19.142;2023-02-26T14:39:48;36.25;34.67;38.00;;
72805;Laerm;60920;48.748;19.142;2023-02-26T14:44:43;36.33;34.53;38.46;;
72805;Laerm;60920;48.748;19.142;2023-02-26T14:47:10;36.43;34.80;39.20;;
72805;Laerm;60920;48.748;19.142;2023-02-26T14:49:36;36.44;34.43;42.47;;
72805;Laerm;60920;48.748;19.142;2023-02-26T14:52:16;36.29;34.67;39.82;;
72805;Laerm;60920;48.748;19.142;2023-02-26T14:57:25;36.70;34.49;50.85;;
72805;Laerm;60920;48.748;19.142;2023-02-26T15:02:55;36.26;34.42;40.80;;
72805;Laerm;60920;48.748;19.142;2023-02-26T15:07:52;36.39;34.71;40.66;;
72805;Laerm;60920;48.748;19.142;2023-02-26T15:10:33;36.47;34.60;44.42;;
72805;Laerm;60920;48.748;19.142;2023-02-26T15:18:12;36.37;34.71;44.10;;
72805;Laerm;60920;48.748;19.142;2023-02-26T15:25:40;47.19;34.60;72.47;;
72805;Laerm;60920;48.748;19.142;2023-02-26T15:28:10;36.39;34.42;53.48;;
72805;Laerm;60920;48.748;19.142;2023-02-26T15:30:37;36.30;34.73;40.27;;
72805;Laerm;60920;48.748;19.142;2023-02-26T15:33:04;36.06;34.25;39.85;;
72805;Laerm;60920;48.748;19.142;2023-02-26T15:35:30;36.20;34.59;37.97;;
72805;Laerm;60920;48.748;19.142;2023-02-26T15:37:56;36.12;34.42;37.82;;
72805;Laerm;60920;48.748;19.142;2023-02-26T15:40:23;36.15;34.64;37.78;;
72805;Laerm;60920;48.748;19.142;2023-02-26T15:42:50;36.23;34.69;39.77;;
72805;Laerm;60920;48.748;19.142;2023-02-26T15:45:21;36.17;34.52;37.93;;
72805;Laerm;60920;48.748;19.142;2023-02-26T15:47:49;36.22;33.99;37.85;;
72805;Laerm;60920;48.748;19.142;2023-02-26T15:50:16;36.23;34.44;38.73;;
72805;Laerm;60920;48.748;19.142;2023-02-26T15:52:41;36.32;34.79;39.06;;
72805;Laerm;60920;48.748;19.142;2023-02-26T15:55:07;36.08;34.39;37.81;;
72805;Laerm;60920;48.748;19.142;2023-02-26T15:57:32;35.96;34.30;39.21;;
72805;Laerm;60920;48.748;19.142;2023-02-26T16:00:04;36.17;34.29;38.00;;
72805;Laerm;60920;48.748;19.142;2023-02-26T16:02:32;35.98;34.16;38.70;;
72805;Laerm;60920;48.748;19.142;2023-02-26T16:04:57;35.94;34.39;37.52;;
72805;Laerm;60920;48.748;19.142;2023-02-26T16:07:22;36.07;34.30;37.95;;
72805;Laerm;60920;48.748;19.142;2023-02-26T16:09:49;36.15;34.56;41.37;;